Terminal Aerodrome Forecast
Issued by NWS Rapid City, SD

Home | Current Version | Previous Version | Text Only | Print | Product List | Glossary Off
Versions: 1 2 3 4 5 6 7 8 9 10 11 12 13 14 15 16

889
FTUS43 KUNR 302034 AAA
TAFRAP
TAF AMD
KRAP 302034Z 3021/0118 33020G30KT P6SM BKN070
     FM010000 34008KT P6SM OVC070=

USA.gov is the U.S. government's official web portal to all federal, state and local government web resources and services.